OMRK/RKT METAR and TAF weather

Enter ICAO airport designator
Station Type Date Time Source
OMRK METAR 2021/03/05 01:00 UTC NOAA

OMRK 050100Z 21002KT CAVOK 15/10 Q1013 Q2993


Station Type Date Time Source
OMRK Decoded METAR 2021/03/05 01:00 UTC NOAA

Ras Al Khaimah International Airport, United Arab Emirates (OMRK) 25-37N 055-56E 31M
Mar 04, 2021 - 08:00 PM EST / 2021.03.05 0100 UTC
Wind: from the SSW (210 degrees) at 2 MPH (2 KT):0
Visibility: greater than 7 mile(s):0
Temperature: 59 F (15 C)
Dew Point: 50 F (10 C)
Relative Humidity: 72%
Pressure (altimeter): 29.91 in. Hg (1013 hPa)
ob: OMRK 050100Z 21002KT CAVOK 15/10 Q1013 Q2993
cycle: 1

Station Type Date Time Source
OMRK TAF 2021/03/04 18:01 UTC NOAA

TAF OMRK 041700Z 0418/0600 VRB02KT CAVOK
BECMG 0508/0510 34013KT
BECMG 0516/0518 18005KT

Example: see airport list